Time;durP1;ratioP1;P1;durP2;ratioP2;P2;SDS_P1;SDS_P2;PMS_P1;PMS_P2;Temp;Humidity;BMP_temperature;BMP_pressure;BME280_temperature;BME280_humidity;BME280_pressure;Samples;Min_cycle;Max_cycle;Signal;HPM_P1;HPM_P2
2021/09/15 00:00:33;;;;;;;15.70;9.10;;;17.80;97.30;;;;;;4978224;28;20190;-86
2021/09/15 00:02:58;;;;;;;15.33;9.40;;;17.80;97.30;;;;;;4978698;28;20245;-86
2021/09/15 00:05:24;;;;;;;13.17;7.90;;;17.80;97.30;;;;;;4997038;28;20835;-85
2021/09/15 00:07:50;;;;;;;20.50;9.30;;;17.80;97.30;;;;;;4979407;28;20224;-86
2021/09/15 00:10:15;;;;;;;11.03;8.00;;;17.80;97.30;;;;;;4978971;28;20178;-86
2021/09/15 00:12:41;;;;;;;18.60;9.20;;;17.80;97.30;;;;;;4977992;28;20177;-86
2021/09/15 00:15:07;;;;;;;12.37;8.50;;;17.80;97.30;;;;;;4978578;28;20166;-86
2021/09/15 00:17:33;;;;;;;16.17;8.40;;;17.80;97.30;;;;;;4978165;28;20204;-86
2021/09/15 00:19:58;;;;;;;17.33;8.00;;;17.80;97.30;;;;;;4995395;28;20425;-86
2021/09/15 00:22:24;;;;;;;16.93;8.73;;;17.80;97.30;;;;;;4980524;28;20169;-86
2021/09/15 00:24:49;;;;;;;14.50;8.27;;;17.90;97.30;;;;;;4997684;28;20181;-86
2021/09/15 00:27:15;;;;;;;11.43;7.60;;;17.90;97.30;;;;;;4997025;28;20212;-86
2021/09/15 00:29:41;;;;;;;13.10;7.67;;;17.80;97.30;;;;;;4997748;28;20647;-86
2021/09/15 00:32:07;;;;;;;13.73;8.40;;;17.90;97.30;;;;;;5008355;28;20166;-86
2021/09/15 00:34:33;;;;;;;10.37;6.97;;;17.80;97.30;;;;;;4979093;28;20866;-86
2021/09/15 00:36:58;;;;;;;15.90;8.07;;;17.80;97.30;;;;;;4979000;28;20209;-86
2021/09/15 00:39:24;;;;;;;10.73;7.43;;;17.80;97.30;;;;;;4996413;28;20451;-86
2021/09/15 00:41:49;;;;;;;12.93;7.43;;;17.80;97.30;;;;;;4978214;28;20649;-87
2021/09/15 00:44:15;;;;;;;12.60;7.10;;;17.80;97.30;;;;;;4977219;28;20188;-85
2021/09/15 00:46:42;;;;;;;11.33;7.20;;;17.80;97.30;;;;;;4976516;28;20900;-86
2021/09/15 00:49:08;;;;;;;13.90;7.53;;;17.80;97.30;;;;;;4994166;28;20409;-87
2021/09/15 00:51:42;;;;;;;11.50;7.57;;;17.80;97.30;;;;;;4976615;28;20452;-85
2021/09/15 00:54:10;;;;;;;10.97;7.90;;;17.80;97.30;;;;;;4994194;28;20390;-86
2021/09/15 00:56:36;;;;;;;11.80;7.60;;;17.80;97.30;;;;;;4994272;28;20460;-86
2021/09/15 00:59:02;;;;;;;12.97;7.27;;;17.90;97.30;;;;;;4973737;28;20552;-87
2021/09/15 01:01:28;;;;;;;13.67;8.17;;;17.80;97.30;;;;;;4973892;28;20429;-86
2021/09/15 01:03:54;;;;;;;11.00;7.10;;;17.80;97.30;;;;;;4976104;28;20422;-86
2021/09/15 01:06:20;;;;;;;17.33;7.73;;;17.90;97.30;;;;;;4975433;28;20210;-86
2021/09/15 01:08:47;;;;;;;14.67;7.70;;;17.90;97.30;;;;;;4976589;28;20209;-86
2021/09/15 01:11:13;;;;;;;14.23;7.13;;;17.90;97.30;;;;;;4976097;28;20398;-86
2021/09/15 01:13:39;;;;;;;11.80;7.27;;;17.90;97.30;;;;;;4973533;28;20504;-86
2021/09/15 01:16:06;;;;;;;12.63;7.77;;;17.90;97.30;;;;;;4973234;28;20438;-86
2021/09/15 01:18:31;;;;;;;10.37;6.80;;;17.90;97.30;;;;;;4973284;28;20441;-86
2021/09/15 01:20:57;;;;;;;11.10;6.90;;;17.80;97.30;;;;;;4973354;28;20426;-86
2021/09/15 01:23:23;;;;;;;13.13;7.63;;;17.80;97.30;;;;;;4973332;28;20273;-86
2021/09/15 01:25:49;;;;;;;12.23;6.90;;;17.80;97.30;;;;;;4974006;28;20205;-86
2021/09/15 01:28:15;;;;;;;10.07;6.50;;;17.80;97.30;;;;;;4974048;28;20461;-86
2021/09/15 01:30:41;;;;;;;10.93;7.60;;;17.80;97.30;;;;;;4977295;28;20171;-86
2021/09/15 01:33:13;;;;;;;13.37;7.60;;;17.80;97.30;;;;;;4975776;28;20485;-86
2021/09/15 01:35:41;;;;;;;11.27;7.50;;;17.80;97.30;;;;;;4976194;28;20173;-86
2021/09/15 01:38:06;;;;;;;10.57;7.30;;;17.80;97.30;;;;;;4974830;28;20518;-86
2021/09/15 01:40:32;;;;;;;12.23;7.60;;;17.80;97.30;;;;;;4974791;28;20956;-86
2021/09/15 01:42:57;;;;;;;11.43;7.07;;;17.80;97.30;;;;;;4973797;28;20637;-86
2021/09/15 01:45:23;;;;;;;12.13;6.87;;;17.80;97.30;;;;;;4973907;28;20182;-86
2021/09/15 01:47:48;;;;;;;10.37;7.40;;;17.70;97.30;;;;;;4974452;28;20209;-87
2021/09/15 01:50:14;;;;;;;8.90;6.80;;;17.80;97.30;;;;;;4974785;28;20179;-86
2021/09/15 01:52:41;;;;;;;13.07;7.20;;;17.80;97.30;;;;;;4972532;28;20179;-86
2021/09/15 01:55:17;;;;;;;15.87;8.20;;;17.70;97.30;;;;;;4972964;28;20186;-87
2021/09/15 01:57:42;;;;;;;9.40;6.17;;;17.70;97.30;;;;;;4972865;28;20453;-86
2021/09/15 02:00:09;;;;;;;11.33;7.20;;;17.70;97.30;;;;;;4976801;28;20476;-87
2021/09/15 02:02:34;;;;;;;9.83;7.17;;;17.70;97.30;;;;;;4977412;28;20182;-86
2021/09/15 02:05:00;;;;;;;14.03;7.50;;;17.70;97.30;;;;;;4978122;28;20553;-86
2021/09/15 02:07:25;;;;;;;12.57;7.93;;;17.70;97.30;;;;;;4978457;28;20217;-86
2021/09/15 02:09:50;;;;;;;10.80;7.13;;;17.70;97.30;;;;;;4978433;28;20181;-86
2021/09/15 02:12:16;;;;;;;13.00;7.03;;;17.70;97.30;;;;;;4977781;28;20171;-86
2021/09/15 02:14:41;;;;;;;9.83;7.33;;;17.70;97.30;;;;;;4976558;28;20202;-86
2021/09/15 02:17:07;;;;;;;10.10;6.30;;;17.70;97.30;;;;;;4976603;28;20206;-86
2021/09/15 02:19:33;;;;;;;10.70;6.80;;;17.70;97.30;;;;;;4976081;28;20182;-86
2021/09/15 02:21:59;;;;;;;10.93;7.33;;;17.70;97.30;;;;;;4976534;28;20604;-86
2021/09/15 02:24:24;;;;;;;11.57;7.70;;;17.70;97.30;;;;;;4976673;28;20974;-86
2021/09/15 02:26:50;;;;;;;12.60;7.10;;;17.70;97.30;;;;;;4976837;28;20250;-86
2021/09/15 02:29:15;;;;;;;10.80;7.20;;;17.70;97.30;;;;;;4976946;28;20175;-86
2021/09/15 02:31:41;;;;;;;13.40;7.50;;;17.60;97.30;;;;;;4976686;28;20189;-86
2021/09/15 02:34:06;;;;;;;10.40;6.30;;;17.60;97.30;;;;;;4979079;28;20185;-86
2021/09/15 02:36:32;;;;;;;11.23;6.37;;;17.60;97.30;;;;;;4978195;28;20194;-86
2021/09/15 02:38:57;;;;;;;11.03;7.80;;;17.60;97.30;;;;;;4977859;28;20713;-86
2021/09/15 02:41:23;;;;;;;11.47;7.13;;;17.60;97.30;;;;;;4977759;28;20185;-86
2021/09/15 02:43:48;;;;;;;14.50;6.80;;;17.60;97.30;;;;;;4976368;28;20533;-86
2021/09/15 02:46:14;;;;;;;10.33;6.53;;;17.60;97.30;;;;;;4976027;28;20209;-86
2021/09/15 02:48:40;;;;;;;11.83;7.27;;;17.60;97.30;;;;;;4975928;28;20260;-86
2021/09/15 02:51:05;;;;;;;10.37;6.90;;;17.60;97.30;;;;;;4977088;28;20638;-86
2021/09/15 02:53:31;;;;;;;10.90;6.63;;;17.60;97.30;;;;;;4975799;28;20186;-86
2021/09/15 02:55:56;;;;;;;9.97;7.00;;;17.60;97.30;;;;;;4976114;28;20281;-86
2021/09/15 02:58:21;;;;;;;11.57;7.30;;;17.60;97.30;;;;;;4979771;28;20284;-86
2021/09/15 03:00:47;;;;;;;11.53;7.47;;;17.60;97.30;;;;;;4996849;28;20244;-86
2021/09/15 03:03:12;;;;;;;10.80;7.23;;;17.60;97.30;;;;;;4997575;28;20199;-86
2021/09/15 03:05:38;;;;;;;13.93;7.03;;;17.50;97.30;;;;;;4980905;28;20233;-86
2021/09/15 03:08:04;;;;;;;24.50;7.97;;;17.50;97.30;;;;;;4997923;28;20355;-86
2021/09/15 03:10:29;;;;;;;14.53;7.93;;;17.50;97.30;;;;;;4980143;28;20262;-86
2021/09/15 03:12:55;;;;;;;16.40;8.53;;;17.50;97.30;;;;;;4979639;28;20202;-86
2021/09/15 03:15:21;;;;;;;15.47;6.60;;;17.50;97.30;;;;;;4978463;28;20184;-86
2021/09/15 03:17:46;;;;;;;13.33;8.40;;;17.50;97.30;;;;;;4978928;28;20499;-87
2021/09/15 03:20:12;;;;;;;10.30;7.27;;;17.40;97.30;;;;;;4978431;28;20273;-86
2021/09/15 03:22:38;;;;;;;11.33;6.90;;;17.40;97.30;;;;;;4978583;28;20186;-86
2021/09/15 03:25:04;;;;;;;12.60;7.80;;;17.40;97.30;;;;;;4996107;28;20555;-86
2021/09/15 03:27:30;;;;;;;10.17;7.53;;;17.40;97.30;;;;;;4978663;28;20212;-86
2021/09/15 03:29:55;;;;;;;12.77;7.73;;;17.40;97.30;;;;;;4978674;28;20508;-86
2021/09/15 03:32:21;;;;;;;11.33;7.57;;;17.30;97.30;;;;;;4978959;28;20182;-86
2021/09/15 03:34:46;;;;;;;10.13;7.10;;;17.30;97.30;;;;;;4997538;28;20224;-86
2021/09/15 03:37:12;;;;;;;11.83;7.50;;;17.30;97.30;;;;;;4980389;28;20212;-85
2021/09/15 03:39:37;;;;;;;14.57;7.60;;;17.30;97.30;;;;;;4980280;28;20268;-86
2021/09/15 03:42:04;;;;;;;11.80;7.07;;;17.30;97.30;;;;;;4978899;28;20177;-86
2021/09/15 03:44:29;;;;;;;23.10;7.87;;;17.30;97.30;;;;;;4978093;28;20317;-86
2021/09/15 03:46:55;;;;;;;13.90;7.67;;;17.30;97.30;;;;;;4978238;28;20602;-86
2021/09/15 03:49:21;;;;;;;11.07;7.60;;;17.30;97.30;;;;;;4995757;28;20658;-86
2021/09/15 03:51:49;;;;;;;15.10;8.13;;;17.30;97.30;;;;;;4978224;28;20259;-86
2021/09/15 03:54:15;;;;;;;11.73;7.30;;;17.30;97.30;;;;;;4978578;28;20576;-86
2021/09/15 03:56:41;;;;;;;11.00;7.20;;;17.30;97.30;;;;;;4978159;28;20437;-86
2021/09/15 03:59:07;;;;;;;13.73;8.00;;;17.30;97.30;;;;;;4978455;28;20469;-86
2021/09/15 04:01:33;;;;;;;11.17;7.47;;;17.20;97.30;;;;;;4978711;28;20181;-86
2021/09/15 04:03:58;;;;;;;15.20;7.23;;;17.20;97.30;;;;;;4997542;28;20412;-85
2021/09/15 04:06:24;;;;;;;12.20;8.60;;;17.10;97.30;;;;;;4979647;28;20204;-86
2021/09/15 04:08:49;;;;;;;9.53;7.30;;;17.10;97.30;;;;;;4979548;28;20213;-87
2021/09/15 04:11:15;;;;;;;12.53;7.37;;;17.10;97.30;;;;;;4978454;28;20178;-86
2021/09/15 04:13:40;;;;;;;10.50;7.17;;;17.10;97.30;;;;;;4978303;28;20182;-85
2021/09/15 04:16:08;;;;;;;13.00;7.80;;;17.00;97.30;;;;;;4978270;28;20194;-85
2021/09/15 04:18:34;;;;;;;12.17;7.40;;;17.00;97.30;;;;;;4977608;28;20181;-85
2021/09/15 04:20:59;;;;;;;18.60;7.40;;;17.00;97.30;;;;;;4993876;28;20844;-85
2021/09/15 04:23:30;;;;;;;16.57;7.30;;;17.00;97.30;;;;;;4977256;28;20181;-84
2021/09/15 04:31:25;;;;;;;13.23;7.10;;;17.00;97.30;;;;;;4995364;28;20435;-84
2021/09/15 04:33:51;;;;;;;11.50;7.90;;;17.00;97.30;;;;;;4978540;28;20409;-85
2021/09/15 04:36:17;;;;;;;11.87;7.73;;;17.00;97.30;;;;;;4978710;28;20816;-84
2021/09/15 04:38:43;;;;;;;10.80;6.87;;;17.00;97.30;;;;;;4978393;28;20427;-84
2021/09/15 04:41:09;;;;;;;10.93;7.00;;;17.00;97.30;;;;;;4977730;28;20572;-85
2021/09/15 04:43:34;;;;;;;10.93;6.93;;;17.00;97.30;;;;;;4977327;28;20421;-84
2021/09/15 04:46:00;;;;;;;11.43;7.40;;;17.00;97.30;;;;;;4994630;28;20202;-84
2021/09/15 04:48:25;;;;;;;19.57;8.50;;;17.00;97.30;;;;;;4994692;28;20201;-84
2021/09/15 04:50:51;;;;;;;13.00;7.23;;;17.00;97.30;;;;;;4977040;28;20608;-84
2021/09/15 04:53:17;;;;;;;12.30;7.23;;;17.00;97.30;;;;;;4976897;28;20181;-85
2021/09/15 04:55:42;;;;;;;15.67;7.37;;;17.00;97.30;;;;;;4976885;28;20174;-85
2021/09/15 04:58:08;;;;;;;11.67;7.37;;;16.90;97.30;;;;;;4976495;28;20679;-85
2021/09/15 05:00:34;;;;;;;14.30;8.27;;;16.90;97.30;;;;;;4976450;28;20188;-84
2021/09/15 05:03:00;;;;;;;13.90;8.13;;;16.90;97.30;;;;;;4977614;28;20180;-85
2021/09/15 05:05:26;;;;;;;10.30;7.23;;;16.80;97.30;;;;;;4978131;28;20416;-84
2021/09/15 05:07:51;;;;;;;15.23;8.20;;;16.80;97.30;;;;;;4979492;28;20510;-84
2021/09/15 05:10:17;;;;;;;12.80;8.57;;;16.80;97.30;;;;;;4994466;28;20162;-84
2021/09/15 05:12:43;;;;;;;15.13;8.83;;;16.80;97.30;;;;;;4976886;28;20688;-85
2021/09/15 05:15:09;;;;;;;14.83;8.37;;;16.80;97.30;;;;;;4976884;28;20424;-84
2021/09/15 05:17:35;;;;;;;11.67;8.47;;;16.80;97.30;;;;;;4976379;28;20271;-85
2021/09/15 05:20:01;;;;;;;11.27;8.17;;;16.80;97.30;;;;;;4975651;28;20277;-85
2021/09/15 05:22:26;;;;;;;13.10;7.77;;;16.90;97.30;;;;;;4976072;28;20186;-85
2021/09/15 05:24:52;;;;;;;13.53;7.33;;;16.90;97.30;;;;;;4976998;28;20181;-85
2021/09/15 05:27:17;;;;;;;16.93;7.53;;;16.90;97.30;;;;;;4976786;28;20521;-84
2021/09/15 05:29:45;;;;;;;12.53;7.60;;;16.90;97.30;;;;;;4977440;28;20256;-85
2021/09/15 05:32:11;;;;;;;14.37;8.17;;;16.90;97.30;;;;;;4977643;28;20187;-85
2021/09/15 05:34:36;;;;;;;11.60;7.80;;;16.90;97.30;;;;;;4978150;28;20417;-85
2021/09/15 05:37:02;;;;;;;12.43;8.43;;;16.90;97.30;;;;;;4995057;28;20507;-84
2021/09/15 05:39:28;;;;;;;12.70;8.40;;;17.00;97.30;;;;;;4976216;28;20177;-84
2021/09/15 05:41:53;;;;;;;10.70;7.50;;;17.00;97.30;;;;;;4976387;28;20178;-84
2021/09/15 05:44:19;;;;;;;16.40;8.50;;;17.00;97.30;;;;;;4976178;28;20174;-84
2021/09/15 05:46:44;;;;;;;12.83;7.47;;;17.00;97.30;;;;;;4974172;28;20739;-85
2021/09/15 05:49:10;;;;;;;14.57;8.60;;;17.00;97.30;;;;;;4975956;28;20240;-85
2021/09/15 05:51:35;;;;;;;13.47;8.10;;;17.00;97.30;;;;;;4975862;28;20169;-84
2021/09/15 05:54:01;;;;;;;14.90;7.83;;;17.10;97.30;;;;;;4976128;28;20185;-84
2021/09/15 05:56:26;;;;;;;16.83;8.80;;;17.10;97.30;;;;;;4976008;28;20269;-85
2021/09/15 05:58:52;;;;;;;12.27;7.50;;;17.10;97.30;;;;;;4977090;28;20305;-85
2021/09/15 06:01:17;;;;;;;15.23;7.70;;;17.20;97.30;;;;;;4977713;28;20735;-84
2021/09/15 06:03:43;;;;;;;12.57;7.33;;;17.20;97.30;;;;;;4977432;28;20185;-84
2021/09/15 06:06:09;;;;;;;13.83;8.50;;;17.20;97.30;;;;;;4976967;28;20221;-84
2021/09/15 06:08:34;;;;;;;14.50;8.40;;;17.30;97.30;;;;;;4976790;28;20201;-84
2021/09/15 06:11:00;;;;;;;13.90;7.80;;;17.30;97.30;;;;;;4975847;28;20355;-84
2021/09/15 06:13:25;;;;;;;13.80;7.60;;;17.40;97.30;;;;;;4975303;28;20372;-85
2021/09/15 06:15:51;;;;;;;13.57;8.30;;;17.50;97.30;;;;;;4992864;28;20251;-84
2021/09/15 06:18:16;;;;;;;13.70;8.17;;;17.50;97.30;;;;;;4975715;28;20182;-84
2021/09/15 06:20:42;;;;;;;12.17;7.30;;;17.60;97.30;;;;;;4975851;28;20768;-84
2021/09/15 06:23:10;;;;;;;12.90;7.10;;;17.70;97.30;;;;;;4994127;28;20185;-85
2021/09/15 06:25:36;;;;;;;11.13;7.17;;;17.80;97.30;;;;;;4976214;28;20178;-84
2021/09/15 06:28:02;;;;;;;10.07;6.80;;;17.80;97.30;;;;;;4977147;28;20476;-84
2021/09/15 06:30:27;;;;;;;15.50;7.13;;;17.80;97.30;;;;;;4977559;28;20409;-84
2021/09/15 06:32:53;;;;;;;14.60;7.83;;;17.90;97.30;;;;;;4977305;28;20217;-85
2021/09/15 06:35:19;;;;;;;11.10;8.40;;;18.00;97.30;;;;;;4976369;28;20194;-84
2021/09/15 06:37:44;;;;;;;10.87;7.70;;;18.00;97.30;;;;;;4975472;28;20209;-85
2021/09/15 06:40:10;;;;;;;12.90;7.83;;;18.00;97.30;;;;;;4992851;28;20198;-85
2021/09/15 06:44:22;;;;;;;14.33;8.17;;;18.20;97.30;;;;;;5088921;27;20953;-77
2021/09/15 06:46:47;;;;;;;14.23;7.90;;;18.20;97.30;;;;;;5087391;28;20631;-78
2021/09/15 06:49:13;;;;;;;15.00;8.27;;;18.30;97.30;;;;;;5089196;28;20171;-79
2021/09/15 06:51:38;;;;;;;12.00;8.07;;;18.30;97.30;;;;;;5087031;28;20174;-78
2021/09/15 06:54:04;;;;;;;11.03;7.30;;;18.40;97.30;;;;;;5088469;28;20199;-78
2021/09/15 06:56:29;;;;;;;11.13;6.87;;;18.40;97.30;;;;;;5088636;28;20655;-78
2021/09/15 06:58:55;;;;;;;9.03;6.90;;;18.50;97.30;;;;;;5088492;28;20632;-79
2021/09/15 07:01:24;;;;;;;12.20;7.43;;;18.50;97.30;;;;;;5087422;28;20189;-78
2021/09/15 07:03:50;;;;;;;10.87;6.20;;;18.60;97.30;;;;;;5086858;28;20199;-78
2021/09/15 07:06:16;;;;;;;15.20;7.40;;;18.70;97.30;;;;;;5087243;28;20854;-78
2021/09/15 07:08:41;;;;;;;12.33;6.87;;;18.80;97.30;;;;;;5088149;28;20463;-80
2021/09/15 07:11:07;;;;;;;9.90;6.57;;;19.00;97.30;;;;;;5088019;28;20225;-80
2021/09/15 07:13:32;;;;;;;10.07;6.13;;;19.10;97.30;;;;;;5087637;28;20297;-80
2021/09/15 07:15:58;;;;;;;11.97;7.00;;;19.30;97.30;;;;;;5087889;28;20217;-79
2021/09/15 07:18:27;;;;;;;12.13;6.30;;;19.40;97.30;;;;;;5087372;28;20186;-80
2021/09/15 07:20:54;;;;;;;9.43;5.83;;;19.60;97.30;;;;;;5086998;28;20183;-80
2021/09/15 07:23:19;;;;;;;12.73;6.27;;;19.70;97.30;;;;;;5087822;28;20452;-80
2021/09/15 07:25:45;;;;;;;10.50;6.17;;;19.80;97.30;;;;;;5087725;28;20428;-79
2021/09/15 07:28:10;;;;;;;11.90;6.43;;;20.00;97.30;;;;;;5087686;28;20513;-80
2021/09/15 07:30:36;;;;;;;19.17;6.93;;;20.10;97.30;;;;;;5088384;28;20688;-80
2021/09/15 07:33:02;;;;;;;10.90;6.67;;;20.20;97.30;;;;;;5087430;28;20202;-80
2021/09/15 07:35:27;;;;;;;10.50;6.20;;;20.30;97.30;;;;;;5087980;28;20186;-79
2021/09/15 07:37:53;;;;;;;11.67;5.90;;;20.40;97.30;;;;;;5088473;28;20183;-80
2021/09/15 07:40:18;;;;;;;8.67;5.90;;;20.40;97.30;;;;;;5087865;28;20183;-80
2021/09/15 07:42:45;;;;;;;6.90;5.73;;;20.50;97.30;;;;;;5079189;28;20231;-80
2021/09/15 07:45:12;;;;;;;9.63;5.80;;;20.60;97.30;;;;;;5067794;28;20182;-80
2021/09/15 07:47:39;;;;;;;8.57;5.33;;;20.60;97.30;;;;;;5066943;28;20417;-79
2021/09/15 07:50:05;;;;;;;10.30;6.07;;;20.80;97.30;;;;;;5086340;28;20424;-80
2021/09/15 07:52:30;;;;;;;8.53;5.60;;;20.80;97.30;;;;;;5088414;28;20847;-80
2021/09/15 07:54:56;;;;;;;7.90;5.20;;;20.90;97.30;;;;;;5078842;28;20420;-80
2021/09/15 07:57:22;;;;;;;15.90;5.60;;;21.00;97.30;;;;;;5079113;28;20274;-80
2021/09/15 07:59:47;;;;;;;9.57;6.00;;;21.10;97.30;;;;;;5076544;28;20202;-80
2021/09/15 08:02:13;;;;;;;6.10;4.97;;;21.20;97.30;;;;;;5078276;28;20202;-80
2021/09/15 08:04:38;;;;;;;9.13;5.70;;;21.30;97.30;;;;;;5078612;28;20171;-79
2021/09/15 08:07:04;;;;;;;11.40;5.40;;;21.40;97.30;;;;;;5074612;28;20236;-80
2021/09/15 08:09:30;;;;;;;13.93;6.10;;;21.50;97.30;;;;;;5075342;28;20178;-79
2021/09/15 08:11:55;;;;;;;10.40;5.77;;;21.50;97.30;;;;;;5075997;28;20544;-79
2021/09/15 08:14:21;;;;;;;7.17;5.03;;;21.60;97.30;;;;;;5073999;28;20181;-80
2021/09/15 08:16:47;;;;;;;8.93;5.40;;;21.60;97.30;;;;;;5074681;28;20179;-80
2021/09/15 08:19:12;;;;;;;7.10;5.50;;;21.60;97.30;;;;;;5075806;28;20474;-80
2021/09/15 08:21:39;;;;;;;8.10;5.00;;;21.60;97.30;;;;;;5074835;28;20634;-79
2021/09/15 08:24:04;;;;;;;11.80;5.03;;;21.60;97.30;;;;;;5074959;28;20199;-80
2021/09/15 08:26:30;;;;;;;6.77;5.00;;;21.60;97.30;;;;;;5077534;28;20413;-80
2021/09/15 08:28:56;;;;;;;9.23;5.63;;;21.70;97.30;;;;;;5076884;28;20167;-81
2021/09/15 08:31:21;;;;;;;9.03;5.23;;;21.60;97.30;;;;;;5077398;28;20189;-80
2021/09/15 08:33:47;;;;;;;8.40;5.27;;;21.60;97.30;;;;;;5079069;28;20190;-80
2021/09/15 08:36:13;;;;;;;7.90;5.37;;;21.60;97.30;;;;;;5076262;28;20544;-80
2021/09/15 08:38:39;;;;;;;8.90;5.03;;;21.60;97.30;;;;;;5078806;28;20214;-80
2021/09/15 08:41:04;;;;;;;8.80;5.50;;;21.70;97.30;;;;;;5079632;28;20808;-80
2021/09/15 08:43:33;;;;;;;12.00;5.90;;;21.70;97.30;;;;;;5077123;28;20226;-80
2021/09/15 08:46:02;;;;;;;7.20;5.03;;;21.70;97.30;;;;;;5062408;28;20176;-80
2021/09/15 08:48:29;;;;;;;6.50;4.80;;;21.70;97.30;;;;;;5063118;28;20424;-81
2021/09/15 08:50:55;;;;;;;10.53;5.63;;;21.70;97.30;;;;;;5077646;28;20425;-81
2021/09/15 08:53:21;;;;;;;7.77;5.40;;;21.70;97.30;;;;;;5078299;28;20476;-79
2021/09/15 08:55:47;;;;;;;7.83;5.67;;;21.70;97.30;;;;;;5074512;28;20410;-80
2021/09/15 08:58:16;;;;;;;10.00;4.90;;;21.70;97.30;;;;;;5072623;28;20262;-80
2021/09/15 09:00:43;;;;;;;9.20;5.63;;;21.80;97.30;;;;;;5074712;28;20413;-80
2021/09/15 09:03:09;;;;;;;7.83;5.47;;;21.90;97.30;;;;;;5072976;28;20860;-80
2021/09/15 09:05:36;;;;;;;10.03;5.93;;;21.90;97.30;;;;;;5078259;28;20414;-80
2021/09/15 09:08:02;;;;;;;7.53;4.90;;;22.00;97.30;;;;;;5079001;28;20419;-80
2021/09/15 09:10:33;;;;;;;7.80;5.70;;;22.00;97.30;;;;;;5077050;28;20412;-80
2021/09/15 09:12:58;;;;;;;8.17;5.40;;;22.10;97.30;;;;;;5079207;28;20438;-80
2021/09/15 09:15:26;;;;;;;9.60;5.80;;;22.10;97.30;;;;;;5078542;28;20428;-80
2021/09/15 09:17:57;;;;;;;9.63;5.47;;;22.10;97.30;;;;;;5073017;28;20185;-80
2021/09/15 09:20:28;;;;;;;10.50;5.80;;;22.10;97.30;;;;;;5079352;28;20425;-82
2021/09/15 09:22:57;;;;;;;11.00;5.57;;;22.20;97.30;;;;;;5068203;28;20489;-83
2021/09/15 09:25:24;;;;;;;8.57;5.83;;;22.20;97.30;;;;;;5057407;28;20425;-84
2021/09/15 09:27:50;;;;;;;8.00;5.43;;;22.20;97.30;;;;;;5071128;28;20497;-82
2021/09/15 09:30:34;;;;;;;10.20;5.70;;;22.20;97.30;;;;;;5078958;28;20414;-81
2021/09/15 09:33:00;;;;;;;9.60;5.10;;;22.10;97.30;;;;;;5079874;28;20428;-81
2021/09/15 09:35:46;;;;;;;9.33;5.57;;;22.10;97.30;;;;;;5079968;28;20433;-84
2021/09/15 09:38:26;;;;;;;13.60;5.33;;;22.10;97.30;;;;;;5075728;28;20269;-82
2021/09/15 09:41:01;;;;;;;12.53;5.13;;;22.10;97.30;;;;;;5086383;28;20413;-81
2021/09/15 09:43:28;;;;;;;8.97;6.20;;;22.00;97.30;;;;;;5085476;28;20472;-81
2021/09/15 09:45:54;;;;;;;8.83;5.70;;;22.00;97.30;;;;;;5077200;28;20413;-84
2021/09/15 09:48:43;;;;;;;9.40;6.50;;;21.80;97.30;;;;;;5082390;28;20447;-83
2021/09/15 09:51:27;;;;;;;10.83;6.30;;;21.70;97.30;;;;;;5060386;28;20241;-82
2021/09/15 09:54:08;;;;;;;10.50;6.70;;;21.60;97.30;;;;;;5062444;28;20843;-83
2021/09/15 09:56:38;;;;;;;8.53;5.87;;;21.50;97.30;;;;;;5065978;28;20442;-83
2021/09/15 09:59:05;;;;;;;9.80;6.50;;;21.40;97.30;;;;;;5080528;28;20774;-82
2021/09/15 10:01:35;;;;;;;11.00;6.70;;;21.30;97.30;;;;;;5082397;28;20425;-83
2021/09/15 10:04:02;;;;;;;11.80;6.37;;;21.30;97.30;;;;;;5085576;28;20461;-82
2021/09/15 10:06:28;;;;;;;11.20;6.67;;;21.20;97.30;;;;;;5083693;28;20405;-83
2021/09/15 10:08:56;;;;;;;9.60;6.97;;;21.10;97.30;;;;;;5081949;28;20509;-83
2021/09/15 10:15:08;;;;;;;11.40;6.33;;;21.00;97.30;;;;;;5080073;28;20491;-83
2021/09/15 10:17:36;;;;;;;9.67;6.40;;;21.00;97.30;;;;;;5104095;28;20413;-82
2021/09/15 10:20:04;;;;;;;10.63;6.60;;;21.00;97.30;;;;;;5083231;28;20418;-82
2021/09/15 10:22:35;;;;;;;13.27;7.07;;;21.00;97.30;;;;;;5097221;28;20548;-83
2021/09/15 10:25:06;;;;;;;10.20;6.40;;;21.00;97.30;;;;;;5079379;28;20426;-81
2021/09/15 10:27:57;;;;;;;10.83;7.43;;;21.00;97.30;;;;;;5070833;28;20433;-83
2021/09/15 10:30:45;;;;;;;17.43;7.30;;;21.00;97.30;;;;;;5060444;28;20457;-83
2021/09/15 10:33:36;;;;;;;13.43;6.20;;;21.00;97.30;;;;;;5052555;28;20462;-82
2021/09/15 10:36:17;;;;;;;10.47;6.80;;;21.10;97.30;;;;;;5069482;28;20425;-82
2021/09/15 10:38:54;;;;;;;12.17;7.20;;;21.10;97.30;;;;;;5075316;28;20460;-82
2021/09/15 10:41:34;;;;;;;10.07;6.70;;;21.10;97.30;;;;;;5064538;28;20487;-83
2021/09/15 10:44:07;;;;;;;12.70;7.80;;;21.10;97.30;;;;;;5051494;28;20493;-83
2021/09/15 10:46:33;;;;;;;13.80;7.80;;;21.20;97.30;;;;;;5056225;28;20470;-82
2021/09/15 10:49:37;;;;;;;11.40;6.47;;;21.20;97.30;;;;;;5060761;28;20836;-82
2021/09/15 10:52:09;;;;;;;10.37;6.73;;;21.20;97.30;;;;;;5059161;28;20414;-82
2021/09/15 10:54:55;;;;;;;13.10;8.37;;;21.20;97.30;;;;;;5062548;28;20658;-82
2021/09/15 10:57:27;;;;;;;8.83;6.90;;;21.20;97.30;;;;;;5052992;28;20448;-82
2021/09/15 11:00:05;;;;;;;14.43;6.97;;;21.10;97.30;;;;;;5062666;28;20418;-82
2021/09/15 11:02:34;;;;;;;14.90;7.67;;;21.10;97.30;;;;;;5072793;28;20461;-83
2021/09/15 11:05:20;;;;;;;23.53;9.67;;;21.00;97.30;;;;;;5055814;28;20430;-84
2021/09/15 11:07:49;;;;;;;12.70;7.60;;;21.00;97.30;;;;;;5077411;28;20508;-84
2021/09/15 11:10:33;;;;;;;12.83;8.63;;;21.10;97.30;;;;;;5080374;28;20926;-83
2021/09/15 11:13:03;;;;;;;14.10;8.70;;;21.20;97.30;;;;;;5080896;28;20449;-83
2021/09/15 11:15:35;;;;;;;14.37;9.30;;;21.30;97.30;;;;;;5081584;28;20462;-83
2021/09/15 11:18:02;;;;;;;17.07;9.20;;;21.50;97.30;;;;;;5081246;28;20413;-82
2021/09/15 11:20:31;;;;;;;20.13;9.53;;;21.50;97.30;;;;;;5073664;28;20417;-83
2021/09/15 11:23:06;;;;;;;14.30;9.03;;;21.60;97.30;;;;;;5065933;28;20462;-84
2021/09/15 11:25:32;;;;;;;15.70;9.20;;;21.70;97.30;;;;;;5061417;28;20475;-82
2021/09/15 11:28:07;;;;;;;17.80;8.87;;;21.70;97.30;;;;;;5060894;28;20501;-84
2021/09/15 11:30:33;;;;;;;13.53;7.50;;;21.70;97.30;;;;;;5070348;28;20416;-82
2021/09/15 11:32:58;;;;;;;17.43;10.10;;;21.60;97.30;;;;;;5084328;28;20527;-83
2021/09/15 11:35:24;;;;;;;13.47;8.90;;;21.60;97.30;;;;;;5085402;28;20429;-83
2021/09/15 11:37:50;;;;;;;14.80;9.73;;;21.60;97.30;;;;;;5081814;28;20580;-82
2021/09/15 11:40:16;;;;;;;18.33;9.80;;;21.50;97.30;;;;;;5081051;28;20175;-85
2021/09/15 11:42:41;;;;;;;16.13;9.23;;;21.50;97.30;;;;;;5063850;28;20242;-80
2021/09/15 11:45:15;;;;;;;15.53;9.67;;;21.50;97.30;;;;;;5058034;28;20176;-80
2021/09/15 11:47:46;;;;;;;16.40;9.90;;;21.50;97.30;;;;;;5053662;28;20172;-78
2021/09/15 11:50:19;;;;;;;14.43;9.47;;;21.50;97.30;;;;;;5053188;28;20426;-79
2021/09/15 11:52:49;;;;;;;16.33;10.17;;;21.60;97.30;;;;;;5053133;28;20972;-83
2021/09/15 11:55:17;;;;;;;15.07;8.80;;;21.60;97.30;;;;;;5052794;28;20545;-81
2021/09/15 11:57:47;;;;;;;16.23;9.27;;;21.60;97.30;;;;;;5052507;28;20495;-80
2021/09/15 12:00:13;;;;;;;13.60;8.80;;;21.70;97.30;;;;;;5052821;28;20442;-79
2021/09/15 12:02:45;;;;;;;12.87;8.83;;;21.70;97.30;;;;;;5063674;28;20469;-80
2021/09/15 12:05:11;;;;;;;16.63;8.37;;;21.80;97.30;;;;;;5060065;28;20422;-78
2021/09/15 12:07:38;;;;;;;15.57;9.03;;;21.80;97.30;;;;;;5065340;28;20416;-82
2021/09/15 12:10:08;;;;;;;13.30;8.57;;;21.80;97.30;;;;;;5062589;28;20407;-81
2021/09/15 12:12:35;;;;;;;13.13;8.10;;;21.90;97.30;;;;;;5062010;28;20951;-84
2021/09/15 12:15:01;;;;;;;16.97;9.33;;;21.90;97.30;;;;;;5071638;28;20496;-79
2021/09/15 12:17:27;;;;;;;14.33;8.90;;;21.90;97.30;;;;;;5054922;28;20509;-78
2021/09/15 12:19:56;;;;;;;13.70;7.73;;;21.90;97.30;;;;;;5054362;28;20413;-80
2021/09/15 12:22:26;;;;;;;11.77;7.50;;;21.90;97.30;;;;;;5052856;28;20249;-78
2021/09/15 12:25:07;;;;;;;11.20;7.73;;;21.80;97.30;;;;;;5053908;28;20415;-80
2021/09/15 12:27:34;;;;;;;11.20;7.60;;;21.70;97.30;;;;;;5052406;28;20483;-81
2021/09/15 12:30:09;;;;;;;12.43;8.60;;;21.60;97.30;;;;;;5052285;28;20441;-81
2021/09/15 12:32:38;;;;;;;12.13;8.40;;;21.60;97.30;;;;;;5052091;28;20624;-81
2021/09/15 12:35:33;;;;;;;12.90;8.60;;;21.50;97.30;;;;;;5052310;28;20411;-79
2021/09/15 12:38:01;;;;;;;12.40;8.27;;;21.50;97.30;;;;;;5051964;28;20833;-82
2021/09/15 12:40:27;;;;;;;12.77;8.10;;;21.40;97.30;;;;;;5052616;28;20445;-79
2021/09/15 12:43:00;;;;;;;12.87;8.60;;;21.40;97.30;;;;;;5069386;28;20471;-78
2021/09/15 12:45:26;;;;;;;17.63;9.07;;;21.50;97.30;;;;;;5092097;28;20181;-81
2021/09/15 12:47:52;;;;;;;13.07;8.90;;;21.50;97.30;;;;;;5056470;28;20417;-78
2021/09/15 12:50:21;;;;;;;16.63;9.10;;;21.60;97.30;;;;;;5072289;28;20945;-78